Time;durP1;ratioP1;P1;durP2;ratioP2;P2;SDS_P1;SDS_P2;PMS_P1;PMS_P2;Temp;Humidity;BMP_temperature;BMP_pressure;BME280_temperature;BME280_humidity;BME280_pressure;Samples;Min_cycle;Max_cycle;Signal;HPM_P1;HPM_P2
2021/05/08 00:01:20;;;;;;;12.27;5.28;;;;;;;;;;5051591;28;20072;-60
2021/05/08 00:03:47;;;;;;;9.60;4.95;;;;;;;;;;5051111;28;20506;-61
2021/05/08 00:06:15;;;;;;;9.43;4.80;;;;;;;;;;5051655;28;20526;-63
2021/05/08 00:08:42;;;;;;;11.55;5.22;;;;;;;;;;5049998;28;20141;-61
2021/05/08 00:11:10;;;;;;;8.43;4.75;;;;;;;;;;5050931;28;20084;-60
2021/05/08 00:13:38;;;;;;;6.53;4.30;;;;;;;;;;5051596;28;20041;-60
2021/05/08 00:16:05;;;;;;;8.27;5.40;;;;;;;;;;5051027;28;20053;-62
2021/05/08 00:18:33;;;;;;;5.93;4.20;;;;;;;;;;5051093;28;20076;-61
2021/05/08 00:21:01;;;;;;;7.22;4.63;;;;;;;;;;5051470;28;20067;-61
2021/05/08 00:23:28;;;;;;;8.68;4.95;;;;;;;;;;5050672;28;20123;-60
2021/05/08 00:25:56;;;;;;;8.45;4.75;;;;;;;;;;5050085;28;20049;-61
2021/05/08 00:28:24;;;;;;;8.85;4.60;;;;;;;;;;5050126;28;20067;-61
2021/05/08 00:30:51;;;;;;;7.90;5.07;;;;;;;;;;5050554;28;20124;-61
2021/05/08 00:33:19;;;;;;;8.27;4.43;;;;;;;;;;5050839;28;20041;-63
2021/05/08 00:35:46;;;;;;;7.85;4.60;;;;;;;;;;5046532;28;20048;-61
2021/05/08 00:38:13;;;;;;;6.70;4.68;;;;;;;;;;5045364;28;20556;-62
2021/05/08 00:40:41;;;;;;;6.53;4.65;;;;;;;;;;5050783;28;20036;-61
2021/05/08 00:43:08;;;;;;;6.75;4.15;;;;;;;;;;5050279;28;20170;-60
2021/05/08 00:45:36;;;;;;;7.72;4.88;;;;;;;;;;5050227;28;20053;-61
2021/05/08 00:48:05;;;;;;;7.38;4.75;;;;;;;;;;5049997;28;20045;-61
2021/05/08 00:50:33;;;;;;;7.15;4.32;;;;;;;;;;5051070;28;20148;-61
2021/05/08 00:53:00;;;;;;;7.68;4.43;;;;;;;;;;5050294;28;20084;-61
2021/05/08 00:55:27;;;;;;;8.00;4.65;;;;;;;;;;5049506;28;20122;-61
2021/05/08 00:58:00;;;;;;;6.93;4.53;;;;;;;;;;5049319;28;20079;-61
2021/05/08 01:00:28;;;;;;;9.40;5.30;;;;;;;;;;5064938;22;20067;-66
2021/05/08 01:02:56;;;;;;;9.55;5.60;;;;;;;;;;5012597;28;20050;-65
2021/05/08 01:05:23;;;;;;;5.68;4.30;;;;;;;;;;5013426;28;20118;-64
2021/05/08 01:07:51;;;;;;;5.68;4.00;;;;;;;;;;5013454;28;20046;-63
2021/05/08 01:10:18;;;;;;;7.07;4.18;;;;;;;;;;5013937;28;20164;-68
2021/05/08 01:12:46;;;;;;;7.65;4.30;;;;;;;;;;5013381;28;20516;-66
2021/05/08 01:15:14;;;;;;;7.25;4.20;;;;;;;;;;5013591;28;20152;-67
2021/05/08 01:17:42;;;;;;;7.22;4.15;;;;;;;;;;5013476;28;20445;-64
2021/05/08 01:20:12;;;;;;;7.10;4.28;;;;;;;;;;5013875;28;20049;-66
2021/05/08 01:22:45;;;;;;;6.82;4.22;;;;;;;;;;5008627;28;20050;-69
2021/05/08 01:25:17;;;;;;;8.07;4.50;;;;;;;;;;5008442;28;20054;-64
2021/05/08 01:27:45;;;;;;;7.82;4.63;;;;;;;;;;5003238;28;20137;-67
2021/05/08 01:30:15;;;;;;;7.13;4.20;;;;;;;;;;5006522;28;20077;-64
2021/05/08 01:32:43;;;;;;;8.18;4.28;;;;;;;;;;5008053;28;20056;-65
2021/05/08 01:35:11;;;;;;;8.50;4.80;;;;;;;;;;5007703;28;20053;-64
2021/05/08 01:37:39;;;;;;;8.20;4.50;;;;;;;;;;5001886;28;20592;-65
2021/05/08 01:40:11;;;;;;;8.68;4.60;;;;;;;;;;5007486;28;20042;-64
2021/05/08 01:42:39;;;;;;;7.05;4.25;;;;;;;;;;5009378;28;20049;-64
2021/05/08 01:45:09;;;;;;;7.32;4.53;;;;;;;;;;5008916;28;20045;-66
2021/05/08 01:47:36;;;;;;;7.15;4.38;;;;;;;;;;5009121;28;20050;-66
2021/05/08 01:50:04;;;;;;;9.65;4.68;;;;;;;;;;5007568;28;20121;-63
2021/05/08 01:52:31;;;;;;;7.65;4.22;;;;;;;;;;5008004;28;20060;-64
2021/05/08 01:54:58;;;;;;;7.55;4.20;;;;;;;;;;5007688;28;20046;-66
2021/05/08 01:57:27;;;;;;;6.78;4.68;;;;;;;;;;5007986;28;20053;-64
2021/05/08 01:59:54;;;;;;;6.78;3.90;;;;;;;;;;5007601;28;20551;-64
2021/05/08 02:02:22;;;;;;;7.20;4.70;;;;;;;;;;5008114;28;20474;-63
2021/05/08 02:04:50;;;;;;;6.15;4.47;;;;;;;;;;5007709;28;20046;-64
2021/05/08 02:07:17;;;;;;;6.45;4.28;;;;;;;;;;5007033;28;20144;-64
2021/05/08 02:09:44;;;;;;;8.02;4.35;;;;;;;;;;5008069;28;20077;-65
2021/05/08 02:12:12;;;;;;;10.30;4.40;;;;;;;;;;5007224;28;20045;-65
2021/05/08 02:14:40;;;;;;;7.53;4.03;;;;;;;;;;5007531;28;20061;-65
2021/05/08 02:17:07;;;;;;;6.68;3.90;;;;;;;;;;5008008;28;20050;-63
2021/05/08 02:19:35;;;;;;;8.82;5.25;;;;;;;;;;5007812;28;20148;-64
2021/05/08 02:22:02;;;;;;;6.45;4.22;;;;;;;;;;5007917;28;20449;-63
2021/05/08 02:24:29;;;;;;;8.68;4.40;;;;;;;;;;5007334;28;20042;-64
2021/05/08 02:26:56;;;;;;;8.90;4.55;;;;;;;;;;5007063;28;20070;-66
2021/05/08 02:29:24;;;;;;;8.48;4.22;;;;;;;;;;5008187;28;20113;-65
2021/05/08 02:31:52;;;;;;;6.90;3.95;;;;;;;;;;5007873;28;20139;-65
2021/05/08 02:34:20;;;;;;;6.57;4.05;;;;;;;;;;5007861;28;20050;-65
2021/05/08 02:36:48;;;;;;;7.63;4.18;;;;;;;;;;4998122;28;20501;-66
2021/05/08 02:39:16;;;;;;;7.38;4.57;;;;;;;;;;5010940;28;20049;-63
2021/05/08 02:41:43;;;;;;;7.05;3.78;;;;;;;;;;5010847;28;20237;-69
2021/05/08 02:44:10;;;;;;;9.07;3.90;;;;;;;;;;5011285;28;20099;-63
2021/05/08 02:46:38;;;;;;;6.25;3.78;;;;;;;;;;5010802;28;20491;-63
2021/05/08 02:49:06;;;;;;;8.30;4.13;;;;;;;;;;5008170;28;20056;-65
2021/05/08 02:51:34;;;;;;;7.95;4.60;;;;;;;;;;5010588;28;20069;-63
2021/05/08 02:54:01;;;;;;;5.60;4.07;;;;;;;;;;5010717;28;20085;-64
2021/05/08 02:56:28;;;;;;;8.20;4.38;;;;;;;;;;5011106;28;20041;-64
2021/05/08 02:58:55;;;;;;;6.88;4.32;;;;;;;;;;5011059;28;20152;-67
2021/05/08 03:01:23;;;;;;;7.40;4.40;;;;;;;;;;5009716;28;20513;-64
2021/05/08 03:03:50;;;;;;;6.15;4.65;;;;;;;;;;5009011;28;20058;-65
2021/05/08 03:06:18;;;;;;;8.27;4.30;;;;;;;;;;5010813;28;20145;-64
2021/05/08 03:08:46;;;;;;;6.78;4.80;;;;;;;;;;5009990;28;20077;-67
2021/05/08 03:11:13;;;;;;;6.03;3.75;;;;;;;;;;4995792;28;20128;-65
2021/05/08 03:13:43;;;;;;;6.25;3.80;;;;;;;;;;5010339;28;20042;-65
2021/05/08 03:16:10;;;;;;;8.23;4.53;;;;;;;;;;5010751;28;20132;-63
2021/05/08 03:18:38;;;;;;;6.18;3.95;;;;;;;;;;5009017;28;20089;-65
2021/05/08 03:21:05;;;;;;;7.07;4.15;;;;;;;;;;4991363;28;20062;-64
2021/05/08 03:23:34;;;;;;;5.90;3.67;;;;;;;;;;5008413;28;20069;-66
2021/05/08 03:26:01;;;;;;;5.30;4.03;;;;;;;;;;5009644;28;20038;-63
2021/05/08 03:28:28;;;;;;;5.25;4.13;;;;;;;;;;5007921;28;20136;-65
2021/05/08 03:30:55;;;;;;;5.72;3.50;;;;;;;;;;5009644;28;20133;-64
2021/05/08 03:33:23;;;;;;;9.73;3.78;;;;;;;;;;5010465;28;20460;-63
2021/05/08 03:35:51;;;;;;;8.25;4.03;;;;;;;;;;5009803;28;20080;-63
2021/05/08 03:38:18;;;;;;;7.72;3.72;;;;;;;;;;5009157;28;20077;-66
2021/05/08 03:40:46;;;;;;;9.93;3.63;;;;;;;;;;5010353;28;20137;-63
2021/05/08 03:43:13;;;;;;;8.95;3.95;;;;;;;;;;5010371;28;20050;-65
2021/05/08 03:45:41;;;;;;;7.78;3.70;;;;;;;;;;5009717;28;20053;-63
2021/05/08 03:48:08;;;;;;;7.32;4.05;;;;;;;;;;5009383;28;20120;-63
2021/05/08 03:50:36;;;;;;;6.05;3.92;;;;;;;;;;5009617;28;20046;-63
2021/05/08 03:53:03;;;;;;;8.95;4.35;;;;;;;;;;5010007;28;20082;-63
2021/05/08 03:55:34;;;;;;;7.18;3.95;;;;;;;;;;5009934;28;20120;-64
2021/05/08 03:58:02;;;;;;;6.82;4.10;;;;;;;;;;5009139;28;20132;-65
2021/05/08 04:00:29;;;;;;;7.90;3.53;;;;;;;;;;5008168;28;20124;-63
2021/05/08 04:02:57;;;;;;;7.82;4.60;;;;;;;;;;5008499;28;20136;-65
2021/05/08 04:05:24;;;;;;;7.55;3.83;;;;;;;;;;5010366;28;20125;-63
2021/05/08 04:07:51;;;;;;;7.10;4.10;;;;;;;;;;5008259;28;20050;-63
2021/05/08 04:10:19;;;;;;;6.57;3.40;;;;;;;;;;5008899;28;20046;-66
2021/05/08 04:12:46;;;;;;;5.22;3.40;;;;;;;;;;5009633;28;20096;-64
2021/05/08 04:15:14;;;;;;;7.47;4.05;;;;;;;;;;5010309;28;20132;-66
2021/05/08 04:17:42;;;;;;;5.68;3.40;;;;;;;;;;5008914;28;20111;-63
2021/05/08 04:20:09;;;;;;;9.50;3.95;;;;;;;;;;5008334;28;20092;-64
2021/05/08 04:22:37;;;;;;;7.57;4.15;;;;;;;;;;5009704;28;20045;-66
2021/05/08 04:25:04;;;;;;;6.93;4.10;;;;;;;;;;5008861;28;20042;-63
2021/05/08 04:27:31;;;;;;;5.00;3.05;;;;;;;;;;5009141;28;20509;-65
2021/05/08 04:29:59;;;;;;;6.95;3.45;;;;;;;;;;5009105;28;20107;-64
2021/05/08 04:32:27;;;;;;;5.03;3.45;;;;;;;;;;5008774;28;20456;-64
2021/05/08 04:34:55;;;;;;;6.45;3.20;;;;;;;;;;5009636;28;20045;-66
2021/05/08 04:37:22;;;;;;;6.00;3.40;;;;;;;;;;5006387;28;20068;-63
2021/05/08 04:39:50;;;;;;;6.38;3.30;;;;;;;;;;5007419;28;20477;-62
2021/05/08 04:42:18;;;;;;;5.60;3.10;;;;;;;;;;5009410;28;20054;-63
2021/05/08 04:44:45;;;;;;;6.70;3.40;;;;;;;;;;5007916;28;20057;-64
2021/05/08 04:47:13;;;;;;;6.43;3.63;;;;;;;;;;5009331;28;20038;-63
2021/05/08 04:49:42;;;;;;;7.53;3.75;;;;;;;;;;5008451;28;20486;-62
2021/05/08 04:52:09;;;;;;;6.55;3.67;;;;;;;;;;5008568;28;20159;-62
2021/05/08 04:54:36;;;;;;;5.47;3.13;;;;;;;;;;5005087;28;20493;-62
2021/05/08 04:57:04;;;;;;;6.13;3.38;;;;;;;;;;5007990;28;20108;-63
2021/05/08 04:59:31;;;;;;;5.18;3.50;;;;;;;;;;5009873;28;20077;-64
2021/05/08 05:02:00;;;;;;;6.20;3.28;;;;;;;;;;5006609;28;20042;-64
2021/05/08 05:04:28;;;;;;;4.90;2.97;;;;;;;;;;5008223;28;20069;-66
2021/05/08 05:06:56;;;;;;;6.10;3.28;;;;;;;;;;5008403;28;20136;-64
2021/05/08 05:09:27;;;;;;;6.03;3.20;;;;;;;;;;5008331;28;20048;-62
2021/05/08 05:11:54;;;;;;;7.80;3.22;;;;;;;;;;5008526;28;20330;-62
2021/05/08 05:14:21;;;;;;;6.55;3.50;;;;;;;;;;5008261;28;20322;-62
2021/05/08 05:16:49;;;;;;;7.88;3.78;;;;;;;;;;5006754;28;20132;-66
2021/05/08 05:19:16;;;;;;;7.88;3.45;;;;;;;;;;5007412;28;20050;-64
2021/05/08 05:21:44;;;;;;;5.65;3.75;;;;;;;;;;5007615;28;20507;-65
2021/05/08 05:24:13;;;;;;;4.72;3.63;;;;;;;;;;5006997;28;20041;-63
2021/05/08 05:26:40;;;;;;;6.90;3.35;;;;;;;;;;5007984;28;20116;-65
2021/05/08 05:29:09;;;;;;;7.40;3.35;;;;;;;;;;5007963;28;20046;-64
2021/05/08 05:31:37;;;;;;;4.70;3.13;;;;;;;;;;5007840;28;20378;-62
2021/05/08 05:34:04;;;;;;;8.20;3.40;;;;;;;;;;5006995;28;20077;-66
2021/05/08 05:36:32;;;;;;;5.70;3.55;;;;;;;;;;4998208;28;20108;-63
2021/05/08 05:39:01;;;;;;;4.85;3.30;;;;;;;;;;5006344;28;20050;-62
2021/05/08 05:41:29;;;;;;;6.28;3.45;;;;;;;;;;5008061;28;20053;-65
2021/05/08 05:43:56;;;;;;;6.03;3.45;;;;;;;;;;5006286;28;20045;-62
2021/05/08 05:46:24;;;;;;;5.40;4.00;;;;;;;;;;5005744;28;20070;-64
2021/05/08 05:48:51;;;;;;;5.53;3.70;;;;;;;;;;5004115;28;20058;-65
2021/05/08 05:51:18;;;;;;;6.65;4.30;;;;;;;;;;5008553;28;20081;-67
2021/05/08 05:53:45;;;;;;;6.25;3.63;;;;;;;;;;5006766;28;20149;-63
2021/05/08 05:56:13;;;;;;;6.90;4.45;;;;;;;;;;5008234;28;20077;-66
2021/05/08 05:58:41;;;;;;;5.22;3.78;;;;;;;;;;5006765;28;20484;-65
2021/05/08 06:01:08;;;;;;;8.98;4.32;;;;;;;;;;5008269;28;20064;-62
2021/05/08 06:03:35;;;;;;;8.57;4.82;;;;;;;;;;5007783;28;20297;-64
2021/05/08 06:06:03;;;;;;;5.28;3.55;;;;;;;;;;5010661;28;20107;-62
2021/05/08 06:08:30;;;;;;;7.15;4.10;;;;;;;;;;5007986;28;20441;-62
2021/05/08 06:10:58;;;;;;;6.85;4.53;;;;;;;;;;5013596;28;20104;-62
2021/05/08 06:13:25;;;;;;;6.30;4.10;;;;;;;;;;5011757;28;20081;-64
2021/05/08 06:15:53;;;;;;;7.95;4.20;;;;;;;;;;5011691;28;20159;-63
2021/05/08 06:18:21;;;;;;;6.90;3.90;;;;;;;;;;4997784;28;20058;-63
2021/05/08 06:20:48;;;;;;;9.43;3.50;;;;;;;;;;4994304;28;20489;-65
2021/05/08 06:23:15;;;;;;;5.50;3.92;;;;;;;;;;5008860;28;20054;-64
2021/05/08 06:25:43;;;;;;;5.55;3.92;;;;;;;;;;5013485;28;20132;-64
2021/05/08 06:28:10;;;;;;;8.40;4.22;;;;;;;;;;5010641;28;20046;-64
2021/05/08 06:30:38;;;;;;;6.32;4.25;;;;;;;;;;5006073;28;20081;-63
2021/05/08 06:33:06;;;;;;;5.40;3.80;;;;;;;;;;5012053;28;20057;-63
2021/05/08 06:35:34;;;;;;;7.07;4.03;;;;;;;;;;5012182;28;20529;-63
2021/05/08 06:38:01;;;;;;;7.32;3.55;;;;;;;;;;5009383;28;20133;-63
2021/05/08 06:40:28;;;;;;;9.73;3.45;;;;;;;;;;5010145;28;20057;-66
2021/05/08 06:42:56;;;;;;;8.25;3.70;;;;;;;;;;5011079;28;20450;-64
2021/05/08 06:45:24;;;;;;;6.43;3.78;;;;;;;;;;5010545;28;20088;-68
2021/05/08 06:47:57;;;;;;;7.82;3.72;;;;;;;;;;5006452;28;20057;-65
2021/05/08 06:50:26;;;;;;;6.18;3.50;;;;;;;;;;5009012;28;20038;-63
2021/05/08 06:52:53;;;;;;;5.60;3.10;;;;;;;;;;5009956;28;20064;-65
2021/05/08 06:55:21;;;;;;;7.03;3.83;;;;;;;;;;5011046;28;20144;-64
2021/05/08 06:57:49;;;;;;;3.53;2.70;;;;;;;;;;5008009;28;20058;-66
2021/05/08 07:00:17;;;;;;;8.50;3.15;;;;;;;;;;5007864;28;20383;-63
2021/05/08 07:02:44;;;;;;;6.00;3.30;;;;;;;;;;5007882;28;20077;-66
2021/05/08 07:05:12;;;;;;;8.10;3.45;;;;;;;;;;5010471;28;20246;-63
2021/05/08 07:07:40;;;;;;;5.93;3.28;;;;;;;;;;5007816;28;20143;-66
2021/05/08 07:10:08;;;;;;;9.85;3.40;;;;;;;;;;5007759;28;20053;-63
2021/05/08 07:12:35;;;;;;;4.78;3.13;;;;;;;;;;5011642;28;20077;-64
2021/05/08 07:15:03;;;;;;;6.43;3.25;;;;;;;;;;5018381;28;20080;-63
2021/05/08 07:17:30;;;;;;;3.60;2.70;;;;;;;;;;5006385;28;20541;-67
2021/05/08 07:19:59;;;;;;;4.90;2.88;;;;;;;;;;5014633;28;20041;-63
2021/05/08 07:22:27;;;;;;;4.25;2.60;;;;;;;;;;5013522;28;20403;-65
2021/05/08 07:24:56;;;;;;;5.00;2.60;;;;;;;;;;5013819;28;20064;-67
2021/05/08 07:27:24;;;;;;;6.43;2.50;;;;;;;;;;5016728;28;20073;-63
2021/05/08 07:29:52;;;;;;;4.95;2.22;;;;;;;;;;5023292;28;20136;-66
2021/05/08 07:32:20;;;;;;;4.90;2.70;;;;;;;;;;5013803;28;20042;-66
2021/05/08 07:34:48;;;;;;;4.28;2.70;;;;;;;;;;5021070;28;20045;-64
2021/05/08 07:37:15;;;;;;;4.15;2.30;;;;;;;;;;5006461;28;20049;-63
2021/05/08 07:39:43;;;;;;;3.88;2.25;;;;;;;;;;5006895;28;20175;-67
2021/05/08 07:42:11;;;;;;;4.47;2.20;;;;;;;;;;5006870;28;20077;-64
2021/05/08 07:44:38;;;;;;;4.25;2.80;;;;;;;;;;5008082;28;20143;-66
2021/05/08 07:47:06;;;;;;;5.13;2.22;;;;;;;;;;4999668;28;20043;-63
2021/05/08 07:49:34;;;;;;;2.88;2.00;;;;;;;;;;5007128;28;20090;-63
2021/05/08 07:52:02;;;;;;;3.50;2.17;;;;;;;;;;5005332;28;20049;-64
2021/05/08 07:54:29;;;;;;;4.18;2.40;;;;;;;;;;5009235;28;20096;-64
2021/05/08 07:56:57;;;;;;;5.43;2.35;;;;;;;;;;5009361;28;20053;-67
2021/05/08 07:59:25;;;;;;;6.43;2.33;;;;;;;;;;5007666;28;20042;-64
2021/05/08 08:01:52;;;;;;;3.28;2.17;;;;;;;;;;5008281;28;20405;-63
2021/05/08 08:04:20;;;;;;;2.90;2.30;;;;;;;;;;5004247;28;20060;-63
2021/05/08 08:06:48;;;;;;;5.50;2.13;;;;;;;;;;5002641;28;20394;-65
2021/05/08 08:09:15;;;;;;;5.90;2.42;;;;;;;;;;5004264;28;20077;-65
2021/05/08 08:11:42;;;;;;;6.30;2.40;;;;;;;;;;5006350;28;20061;-67
2021/05/08 08:14:10;;;;;;;3.72;2.20;;;;;;;;;;5006092;28;20548;-67
2021/05/08 08:16:38;;;;;;;2.50;2.10;;;;;;;;;;5005865;28;20038;-64
2021/05/08 08:19:06;;;;;;;3.33;1.90;;;;;;;;;;5006262;28;20128;-64
2021/05/08 08:21:33;;;;;;;6.53;2.35;;;;;;;;;;5005351;28;20486;-64
2021/05/08 08:24:01;;;;;;;4.35;2.53;;;;;;;;;;5006575;28;20061;-68
2021/05/08 08:26:28;;;;;;;5.60;2.22;;;;;;;;;;5005551;28;20081;-67
2021/05/08 08:28:56;;;;;;;4.05;1.88;;;;;;;;;;5003221;28;20054;-64
2021/05/08 08:31:23;;;;;;;2.85;2.20;;;;;;;;;;5005084;28;20149;-65
2021/05/08 08:33:52;;;;;;;2.78;1.95;;;;;;;;;;5005007;28;20497;-66
2021/05/08 08:36:19;;;;;;;4.40;1.73;;;;;;;;;;5000996;28;20441;-64
2021/05/08 08:38:47;;;;;;;2.70;1.65;;;;;;;;;;5004392;28;20110;-64
2021/05/08 08:41:15;;;;;;;6.32;2.50;;;;;;;;;;5006209;28;20409;-65
2021/05/08 08:43:43;;;;;;;4.40;2.00;;;;;;;;;;5004340;28;20085;-66
2021/05/08 08:46:12;;;;;;;4.40;1.90;;;;;;;;;;5003125;28;20460;-66
2021/05/08 08:48:40;;;;;;;4.07;1.98;;;;;;;;;;5000797;28;20137;-66
2021/05/08 08:51:08;;;;;;;2.42;1.80;;;;;;;;;;5001661;28;20136;-63
2021/05/08 08:53:36;;;;;;;6.55;2.00;;;;;;;;;;5002659;28;20050;-67
2021/05/08 08:56:03;;;;;;;3.85;1.75;;;;;;;;;;5002628;28;20486;-63
2021/05/08 08:58:33;;;;;;;3.25;1.80;;;;;;;;;;5004551;28;20468;-66
2021/05/08 09:01:00;;;;;;;4.97;2.10;;;;;;;;;;4999461;28;20062;-65
2021/05/08 09:03:28;;;;;;;3.47;2.13;;;;;;;;;;5005258;28;20141;-67
2021/05/08 09:05:57;;;;;;;5.05;2.17;;;;;;;;;;5006334;28;20054;-63
2021/05/08 09:08:25;;;;;;;2.85;1.80;;;;;;;;;;5005716;28;20046;-64
2021/05/08 09:10:53;;;;;;;3.92;1.90;;;;;;;;;;5001025;28;20212;-64
2021/05/08 09:13:22;;;;;;;2.90;2.17;;;;;;;;;;5001603;28;20144;-64
2021/05/08 09:15:52;;;;;;;5.22;2.17;;;;;;;;;;5006331;28;20056;-64
2021/05/08 09:18:32;;;;;;;6.35;2.20;;;;;;;;;;4995421;28;21982;-64
2021/05/08 09:20:59;;;;;;;7.38;2.60;;;;;;;;;;4999110;28;20054;-64
2021/05/08 09:23:31;;;;;;;4.38;2.20;;;;;;;;;;5005362;28;20049;-64
2021/05/08 09:26:00;;;;;;;4.72;2.13;;;;;;;;;;5003095;28;20147;-63
2021/05/08 09:28:28;;;;;;;2.30;1.63;;;;;;;;;;5003286;28;20045;-64
2021/05/08 09:30:56;;;;;;;3.75;2.10;;;;;;;;;;5003016;28;20085;-64
2021/05/08 09:33:25;;;;;;;2.50;2.10;;;;;;;;;;5002607;28;20123;-64
2021/05/08 09:35:59;;;;;;;3.15;2.17;;;;;;;;;;5001181;28;20460;-64
2021/05/08 09:38:32;;;;;;;3.72;2.13;;;;;;;;;;4999218;28;20100;-64
2021/05/08 09:40:59;;;;;;;2.75;2.05;;;;;;;;;;4995382;28;20493;-63
2021/05/08 09:43:27;;;;;;;2.97;1.70;;;;;;;;;;5005002;28;20104;-63
2021/05/08 09:45:56;;;;;;;5.45;1.80;;;;;;;;;;5008171;28;20046;-63
2021/05/08 09:48:26;;;;;;;3.58;1.80;;;;;;;;;;5006770;28;20057;-64
2021/05/08 09:51:16;;;;;;;3.08;2.15;;;;;;;;;;5005853;28;20064;-64
2021/05/08 09:53:44;;;;;;;5.15;2.03;;;;;;;;;;5008682;28;20074;-64
2021/05/08 09:56:27;;;;;;;2.85;2.00;;;;;;;;;;5003293;28;20547;-61
2021/05/08 09:58:55;;;;;;;2.05;1.65;;;;;;;;;;5005695;28;20123;-63
2021/05/08 10:01:22;;;;;;;4.00;1.77;;;;;;;;;;5004339;28;20057;-64
2021/05/08 10:03:50;;;;;;;2.38;1.95;;;;;;;;;;5002580;28;20133;-63
2021/05/08 10:06:17;;;;;;;3.90;1.80;;;;;;;;;;5001858;28;20592;-64
2021/05/08 10:08:45;;;;;;;3.15;1.80;;;;;;;;;;5002753;28;20085;-64
2021/05/08 10:11:13;;;;;;;2.60;1.55;;;;;;;;;;5007292;28;20050;-64
2021/05/08 10:13:41;;;;;;;3.45;1.67;;;;;;;;;;5003268;28;20140;-63
2021/05/08 10:16:09;;;;;;;2.88;1.98;;;;;;;;;;5004222;28;20267;-64
2021/05/08 10:18:39;;;;;;;2.60;1.50;;;;;;;;;;5001093;28;20125;-61
2021/05/08 10:21:07;;;;;;;3.05;1.60;;;;;;;;;;5003688;28;20064;-62
2021/05/08 10:23:35;;;;;;;5.18;1.88;;;;;;;;;;5002280;28;20053;-62
2021/05/08 10:26:04;;;;;;;3.90;1.90;;;;;;;;;;5004625;28;20054;-62
2021/05/08 10:28:31;;;;;;;2.83;1.58;;;;;;;;;;5001973;28;20076;-61
2021/05/08 10:30:59;;;;;;;4.30;1.92;;;;;;;;;;5001445;28;20108;-62
2021/05/08 10:33:27;;;;;;;2.63;1.75;;;;;;;;;;5006909;28;20058;-62
2021/05/08 10:35:55;;;;;;;3.67;1.95;;;;;;;;;;5000972;28;20053;-62
2021/05/08 10:38:23;;;;;;;3.50;1.40;;;;;;;;;;5001147;28;20050;-62
2021/05/08 10:40:52;;;;;;;2.97;1.58;;;;;;;;;;5006736;28;20119;-62
2021/05/08 10:43:38;;;;;;;4.25;1.60;;;;;;;;;;5007382;28;20049;-62
2021/05/08 10:46:06;;;;;;;3.30;1.83;;;;;;;;;;5006991;28;20133;-62
2021/05/08 10:48:34;;;;;;;3.10;1.85;;;;;;;;;;5007250;28;20337;-62
2021/05/08 10:51:02;;;;;;;2.70;1.40;;;;;;;;;;5006254;28;20588;-62
2021/05/08 10:53:40;;;;;;;3.28;2.22;;;;;;;;;;5007727;28;20145;-62
2021/05/08 10:56:08;;;;;;;3.88;2.00;;;;;;;;;;5005505;28;20538;-62
2021/05/08 10:58:39;;;;;;;2.78;1.80;;;;;;;;;;5007183;28;20081;-62
2021/05/08 11:01:09;;;;;;;2.30;1.70;;;;;;;;;;4996174;28;20062;-62
2021/05/08 11:03:55;;;;;;;1.70;1.38;;;;;;;;;;5005948;28;20081;-62
2021/05/08 11:06:24;;;;;;;4.50;1.90;;;;;;;;;;5007568;28;20076;-62
2021/05/08 11:08:51;;;;;;;3.78;1.58;;;;;;;;;;5009779;28;20057;-62
2021/05/08 11:11:22;;;;;;;3.78;1.70;;;;;;;;;;5007589;28;20323;-65
2021/05/08 11:13:59;;;;;;;2.95;1.77;;;;;;;;;;5007105;28;20057;-70
2021/05/08 11:16:28;;;;;;;3.67;1.60;;;;;;;;;;5001479;28;20054;-64
2021/05/08 11:18:56;;;;;;;1.85;1.40;;;;;;;;;;5001104;28;20089;-67
2021/05/08 11:21:51;;;;;;;2.08;1.70;;;;;;;;;;5006678;28;20072;-65
2021/05/08 11:24:34;;;;;;;2.08;1.50;;;;;;;;;;5006997;28;20046;-65
2021/05/08 11:27:02;;;;;;;2.65;1.70;;;;;;;;;;5008486;28;20042;-63
2021/05/08 11:29:31;;;;;;;1.85;1.45;;;;;;;;;;4999211;28;20058;-63
2021/05/08 11:32:01;;;;;;;3.13;1.50;;;;;;;;;;5007643;28;20054;-63
2021/05/08 11:34:30;;;;;;;3.97;1.90;;;;;;;;;;5008303;28;20548;-64
2021/05/08 11:36:58;;;;;;;4.07;1.95;;;;;;;;;;4994839;28;20050;-62
2021/05/08 11:39:27;;;;;;;6.32;2.33;;;;;;;;;;5003585;28;20053;-62
2021/05/08 11:41:56;;;;;;;2.63;1.42;;;;;;;;;;5008167;28;20057;-67
2021/05/08 11:44:28;;;;;;;3.10;1.52;;;;;;;;;;5002353;28;20125;-66
2021/05/08 11:47:00;;;;;;;1.60;1.40;;;;;;;;;;5006318;28;20431;-66
2021/05/08 11:49:32;;;;;;;1.92;1.50;;;;;;;;;;5007823;28;20053;-66
2021/05/08 11:52:00;;;;;;;2.75;1.65;;;;;;;;;;4996122;28;20103;-65
2021/05/08 11:54:29;;;;;;;1.13;1.02;;;;;;;;;;5005581;28;20812;-63
2021/05/08 11:56:56;;;;;;;3.47;1.20;;;;;;;;;;5006802;28;20108;-67
2021/05/08 11:59:34;;;;;;;1.30;1.10;;;;;;;;;;5009141;28;20571;-64
2021/05/08 12:02:12;;;;;;;0.93;0.82;;;;;;;;;;5000244;28;20096;-63
2021/05/08 12:04:46;;;;;;;0.90;0.80;;;;;;;;;;5011194;28;20046;-64
2021/05/08 12:07:14;;;;;;;1.10;0.80;;;;;;;;;;5008815;28;20092;-63
2021/05/08 12:09:42;;;;;;;1.45;0.90;;;;;;;;;;4996153;28;20657;-62
2021/05/08 12:12:10;;;;;;;1.25;0.80;;;;;;;;;;5011015;28;20038;-63
2021/05/08 12:14:41;;;;;;;2.47;0.80;;;;;;;;;;5010715;28;20096;-63
2021/05/08 12:17:09;;;;;;;2.15;1.00;;;;;;;;;;5012560;28;20061;-68
2021/05/08 12:19:38;;;;;;;1.45;0.73;;;;;;;;;;5010895;28;20129;-67
2021/05/08 12:22:06;;;;;;;2.17;1.00;;;;;;;;;;5004532;28;20042;-64
2021/05/08 12:24:34;;;;;;;1.38;0.88;;;;;;;;;;5008696;28;20046;-64
2021/05/08 12:27:02;;;;;;;2.10;1.00;;;;;;;;;;5011381;28;20064;-64
2021/05/08 12:29:44;;;;;;;1.13;0.98;;;;;;;;;;5008909;28;20054;-63
2021/05/08 12:32:15;;;;;;;1.25;1.10;;;;;;;;;;5007497;28;20046;-63
2021/05/08 12:34:51;;;;;;;1.65;1.15;;;;;;;;;;5010493;28;20559;-62
2021/05/08 12:37:18;;;;;;;1.92;1.00;;;;;;;;;;5003722;28;20551;-62
2021/05/08 12:39:58;;;;;;;3.35;1.00;;;;;;;;;;1735974;28;10022719;-62
2021/05/08 12:42:40;;;;;;;2.28;0.90;;;;;;;;;;3968572;28;10001101;-63
2021/05/08 12:45:08;;;;;;;1.38;0.90;;;;;;;;;;5012504;28;20081;-68
2021/05/08 12:47:39;;;;;;;1.67;0.88;;;;;;;;;;5011008;28;20052;-65
2021/05/08 12:50:13;;;;;;;4.30;1.00;;;;;;;;;;5011223;28;20046;-68
2021/05/08 12:52:41;;;;;;;1.73;1.00;;;;;;;;;;5011516;28;20057;-64
2021/05/08 12:55:22;;;;;;;1.52;0.70;;;;;;;;;;5006297;28;20057;-62
2021/05/08 12:57:50;;;;;;;2.80;0.93;;;;;;;;;;5010431;28;20548;-62
2021/05/08 13:00:19;;;;;;;1.58;0.90;;;;;;;;;;5004760;28;20050;-64
2021/05/08 13:02:47;;;;;;;1.13;0.80;;;;;;;;;;5005070;28;20180;-63
2021/05/08 13:05:17;;;;;;;2.30;0.90;;;;;;;;;;5011776;28;20049;-66
2021/05/08 13:07:52;;;;;;;13.13;3.38;;;;;;;;;;5009299;28;20111;-66
2021/05/08 13:10:22;;;;;;;1.20;0.85;;;;;;;;;;5010736;28;20465;-63
2021/05/08 13:12:50;;;;;;;2.70;1.30;;;;;;;;;;5011385;28;20048;-63
2021/05/08 13:15:19;;;;;;;1.58;0.80;;;;;;;;;;5011418;28;20130;-66
2021/05/08 13:17:47;;;;;;;1.70;1.00;;;;;;;;;;5011071;28;20509;-64
2021/05/08 13:20:16;;;;;;;3.65;0.82;;;;;;;;;;5009136;28;20049;-63
2021/05/08 13:22:44;;;;;;;1.38;1.00;;;;;;;;;;5009988;28;20084;-63
2021/05/08 13:25:13;;;;;;;1.23;0.85;;;;;;;;;;5010336;28;20057;-63
2021/05/08 13:27:41;;;;;;;2.78;0.85;;;;;;;;;;5010849;28;20137;-62
2021/05/08 13:30:09;;;;;;;1.15;0.75;;;;;;;;;;5010857;28;20485;-65
2021/05/08 13:32:37;;;;;;;2.33;1.00;;;;;;;;;;5009830;28;20482;-62
2021/05/08 13:35:05;;;;;;;2.03;1.35;;;;;;;;;;5010973;28;20564;-64
2021/05/08 13:37:34;;;;;;;1.35;0.70;;;;;;;;;;5008329;28;20442;-63
2021/05/08 13:40:02;;;;;;;0.70;0.50;;;;;;;;;;5010313;28;20489;-67
2021/05/08 13:42:29;;;;;;;1.25;0.55;;;;;;;;;;5010844;28;20056;-63
2021/05/08 13:44:57;;;;;;;2.15;0.80;;;;;;;;;;5011027;28;20052;-63
2021/05/08 13:47:24;;;;;;;1.55;0.80;;;;;;;;;;5010120;28;20050;-63
2021/05/08 13:49:54;;;;;;;1.58;0.70;;;;;;;;;;5010480;28;20500;-63
2021/05/08 13:52:22;;;;;;;0.73;0.55;;;;;;;;;;5011179;28;20049;-70
2021/05/08 13:54:52;;;;;;;1.15;0.73;;;;;;;;;;5011275;28;20104;-71
2021/05/08 13:57:33;;;;;;;1.05;0.65;;;;;;;;;;5009840;28;20046;-62
2021/05/08 14:00:01;;;;;;;2.28;0.57;;;;;;;;;;5010715;28;20038;-63
2021/05/08 14:02:28;;;;;;;1.42;0.77;;;;;;;;;;5011209;28;20050;-62
2021/05/08 14:04:58;;;;;;;1.70;0.68;;;;;;;;;;5012228;28;20050;-63
2021/05/08 14:07:26;;;;;;;1.63;0.75;;;;;;;;;;5013275;28;20049;-63
2021/05/08 14:09:56;;;;;;;1.50;0.60;;;;;;;;;;5013693;28;20069;-62
2021/05/08 14:12:24;;;;;;;1.85;0.45;;;;;;;;;;5012485;28;20405;-62
2021/05/08 14:14:53;;;;;;;0.98;0.60;;;;;;;;;;5010169;28;20163;-63
2021/05/08 14:17:21;;;;;;;1.08;0.63;;;;;;;;;;5010965;28;20763;-64
2021/05/08 14:19:50;;;;;;;1.65;0.63;;;;;;;;;;5010693;28;20576;-63
2021/05/08 14:22:18;;;;;;;0.90;0.57;;;;;;;;;;5010676;28;20519;-67
2021/05/08 14:24:45;;;;;;;0.60;0.50;;;;;;;;;;5010138;28;20386;-64
2021/05/08 14:27:14;;;;;;;1.00;0.68;;;;;;;;;;5007943;28;20092;-63
2021/05/08 14:29:41;;;;;;;0.90;0.63;;;;;;;;;;5011049;28;20129;-61
2021/05/08 14:32:09;;;;;;;1.55;0.73;;;;;;;;;;5012229;28;20077;-61
2021/05/08 14:34:37;;;;;;;1.83;0.80;;;;;;;;;;5014011;28;20444;-61
2021/05/08 14:37:04;;;;;;;0.88;0.70;;;;;;;;;;4998393;28;20058;-64
2021/05/08 14:39:32;;;;;;;1.52;0.70;;;;;;;;;;5008081;28;20140;-62
2021/05/08 14:42:01;;;;;;;1.98;0.90;;;;;;;;;;5014021;28;20502;-62
2021/05/08 14:44:29;;;;;;;2.03;1.00;;;;;;;;;;5014058;28;20042;-62
2021/05/08 14:46:56;;;;;;;7.28;1.55;;;;;;;;;;5010978;28;20494;-62
2021/05/08 14:49:25;;;;;;;4.45;0.85;;;;;;;;;;5012144;28;20057;-62
2021/05/08 14:51:53;;;;;;;4.07;1.08;;;;;;;;;;5013489;28;20527;-63